Triangle North Executive Airport

About
Name: Triangle North Executive Airport
Identifier:  LFN/KLHZ
Local Time:  18. Aug 08:54 EDT
Location
Flights per Day
0 flights
Distance: 968km (601mi)
Punctuality
0% (0 flights per day delayed)
Delay Average: 26 minutes
Current Weather
 21 C (Humidity: 100%)
  0kt (0km/h / 0mph) from 0°
  Overcast at 200 feet (60 meter)
  0km (0 mi.)
 Fog
 METAR KLHZ 181220Z AUTO 00000KT 1/2SM FG OVC002 21/21 A3006 RMK AO2

Current Flights

Departures
Number Departure To Airline
Arrivals
Number Arrival From Airline

Current Delays

Departures
N/A
Arrivals
N/A

Destinations

Top Destinations
Airport Flights
per week
Seats
per week
  Raleigh-Durham (RDU) 1 - 0 0
  Lancaster (LNS) 1 - 0 0
  Richmond (RIC) 0 - 0 0
  Concord (USA) 0 - 0 0
  Appleton (ATW) 0 - 0 0
  Hagerstown (HGR) 0 - 0 0
  Fort Wayne (SMD) 0 - 0 0
  Lynchburg (LYH) 0 - 0 0
  North Myrtle Beach (CRE) 0 - 0 0
  Nashville (BNA) 0 - 0 0
  Leesburg (LEE) 0 - 0 0

Airlines & Planes

Top Airlines
Airline Flights
per Day
Seats
per Day
  Flybe Nordic 0 -
  National Airlines 0 -
Nordwind Airlines 0 -
  Novair 0 -
  Nolinor Aviation 0 -
Jet Charter Inc ( Franklin Lakes Nj ) 0 -
Top Plane Types
Model Flights Seats
Cessna C172 0.3/day - 0
Cirrus SR22 0.1/day - 0
Pilatus PC-12 0.1/day - 0
Beech G36 Bonanza 0.1/day - 0
Piper PA-32R-301T Saratoga II 0.1/day - 0
Bombardier CRJ700 0.1/day - 0